PWSweather.com
Personal Weather Stations
Station Observations
KMAMEDFI2
Medfield, MA 02052

Medfield, MA 02052

Lat: 42.1900822, Lon: -71.3296889

Elevation: 138

Station Type: Rainwise WS MK-III

http://www.medfieldweather.com

Latest ConditionsUpdated 12:20:00 PM EDT Monday, Jul 28, 2014
Currently Today's Max Today's Min Today's Average
Temperature 80.4°F26.9°C 80.4°F26.9°C 66.9°F19.4°C 71.2°F21.8°C
Dew Point 70.9°F21.6°C 73.9°F23.3°C 66.6°F19.2°C 69.9°F21.1°C
Winds 3.6 mph WSW5.8 kmh WSW 4.1 mph S6.6 kmh S - 1.3 mph 2.1 kmh
Wind Gusts 5.2 mph8.4 kmh 10.4 mph16.7 kmh - -
Humidity 73% 99% 73% 96%
Pressure 29.54 in1000.3 mb 29.65 in1004.1 mb 29.50 in999.0 mb -
Precipitation - 0.27 in6.9 mm - -
Hour Temp Dew Point Humidity Winds Wind Gusts Pressure Precip Precip Rate Daily Precip Total
12:20 PM 80.4°F26.9°C 70.9°F21.6°C 73% 3.6 mph WSW5.8 kmh WSW 5.2 mph8.4 kmh 29.54 in1000.3 mb 0.00 in0.0 mm 0.00 in/hr0.0 mm/hr 0.27 in6.9 mm
12:10 PM 79.7°F26.5°C 70.6°F21.4°C 74% 2.6 mph SSW4.2 kmh SSW 2.6 mph4.2 kmh 29.54 in1000.3 mb 0.00 in0.0 mm 0.00 in/hr0.0 mm/hr 0.27 in6.9 mm
12:00 PM 79.0°F26.1°C 70.4°F21.3°C 75% 3.8 mph SE6.1 kmh SE 7.8 mph12.6 kmh 29.54 in1000.3 mb 0.00 in0.0 mm 0.00 in/hr0.0 mm/hr 0.27 in6.9 mm
11:50 AM 79.0°F26.1°C 71.5°F21.9°C 78% 2.0 mph SW3.2 kmh SW 3.9 mph6.3 kmh 29.55 in1000.7 mb 0.00 in0.0 mm 0.00 in/hr0.0 mm/hr 0.27 in6.9 mm
11:40 AM 77.8°F25.4°C 71.5°F21.9°C 81% 3.5 mph SSW5.6 kmh SSW 5.2 mph8.4 kmh 29.55 in1000.7 mb 0.00 in0.0 mm 0.00 in/hr0.0 mm/hr 0.27 in6.9 mm
11:30 AM 77.1°F25.1°C 70.9°F21.6°C 81% 4.1 mph S6.6 kmh S 7.8 mph12.6 kmh 29.55 in1000.7 mb 0.00 in0.0 mm 0.00 in/hr0.0 mm/hr 0.27 in6.9 mm
11:20 AM 77.5°F25.3°C 71.2°F21.8°C 81% 2.9 mph SW4.7 kmh SW 5.2 mph8.4 kmh 29.55 in1000.7 mb 0.00 in0.0 mm 0.00 in/hr0.0 mm/hr 0.27 in6.9 mm
11:10 AM 76.4°F24.7°C 70.5°F21.4°C 82% 3.0 mph SSW4.8 kmh SSW 5.2 mph8.4 kmh 29.55 in1000.7 mb 0.00 in0.0 mm 0.00 in/hr0.0 mm/hr 0.27 in6.9 mm
11:00 AM 75.9°F24.4°C 70.7°F21.5°C 84% 3.6 mph SSE5.8 kmh SSE 5.2 mph8.4 kmh 29.55 in1000.7 mb 0.00 in0.0 mm 0.00 in/hr0.0 mm/hr 0.27 in6.9 mm
10:50 AM 75.9°F24.4°C 71.1°F21.7°C 85% 3.1 mph SSE5.0 kmh SSE 5.2 mph8.4 kmh 29.55 in1000.7 mb 0.00 in0.0 mm 0.00 in/hr0.0 mm/hr 0.27 in6.9 mm
10:40 AM 75.8°F24.3°C 72.3°F22.4°C 89% 2.6 mph S4.2 kmh S 7.8 mph12.6 kmh 29.55 in1000.7 mb 0.00 in0.0 mm 0.00 in/hr0.0 mm/hr 0.27 in6.9 mm
10:30 AM 75.4°F24.1°C 73.9°F23.3°C 95% 1.1 mph S1.8 kmh S 5.2 mph8.4 kmh 29.54 in1000.3 mb 0.00 in0.0 mm 0.00 in/hr0.0 mm/hr 0.27 in6.9 mm
10:20 AM 74.0°F23.3°C 73.7°F23.2°C 99% 3.0 mph W4.8 kmh W 10.4 mph16.7 kmh 29.54 in1000.3 mb 0.00 in0.0 mm 0.00 in/hr0.0 mm/hr 0.27 in6.9 mm
10:10 AM 73.4°F23.0°C 73.1°F22.8°C 99% 1.2 mph SSW1.9 kmh SSW 5.2 mph8.4 kmh 29.54 in1000.3 mb 0.00 in0.0 mm 0.00 in/hr0.0 mm/hr 0.27 in6.9 mm
10:00 AM 73.9°F23.3°C 73.6°F23.1°C 99% 2.1 mph W3.4 kmh W 7.8 mph12.6 kmh 29.53 in1000.0 mb 0.00 in0.0 mm 0.00 in/hr0.0 mm/hr 0.27 in6.9 mm
09:50 AM 72.9°F22.7°C 72.6°F22.6°C 99% 2.6 mph S4.2 kmh S 5.2 mph8.4 kmh 29.53 in1000.0 mb 0.00 in0.0 mm 0.00 in/hr0.0 mm/hr 0.27 in6.9 mm
09:40 AM 72.7°F22.6°C 72.4°F22.4°C 99% 2.7 mph S4.3 kmh S 5.2 mph8.4 kmh 29.53 in1000.0 mb 0.00 in0.0 mm 0.00 in/hr0.0 mm/hr 0.27 in6.9 mm
09:30 AM 72.2°F22.3°C 71.9°F22.2°C 99% 1.9 mph S3.1 kmh S 2.6 mph4.2 kmh 29.53 in1000.0 mb 0.00 in0.0 mm 0.00 in/hr0.0 mm/hr 0.27 in6.9 mm
09:20 AM 71.8°F22.1°C 71.5°F21.9°C 99% 2.4 mph SSW3.9 kmh SSW 3.9 mph6.3 kmh 29.53 in1000.0 mb 0.00 in0.0 mm 0.00 in/hr0.0 mm/hr 0.27 in6.9 mm
09:10 AM 70.7°F21.5°C 70.4°F21.3°C 99% 0.7 mph SSE1.1 kmh SSE 2.6 mph4.2 kmh 29.54 in1000.3 mb 0.01 in0.3 mm 0.06 in/hr1.5 mm/hr 0.27 in6.9 mm
09:00 AM 70.1°F21.2°C 69.8°F21.0°C 99% 3.8 mph NNW6.1 kmh NNW 6.5 mph10.5 kmh 29.54 in1000.3 mb 0.13 in3.3 mm 0.16 in/hr4.1 mm/hr 0.26 in6.6 mm
08:50 AM 70.5°F21.4°C 70.2°F21.2°C 99% 1.5 mph ENE2.4 kmh ENE 2.6 mph4.2 kmh 29.54 in1000.3 mb 0.05 in1.3 mm 0.30 in/hr7.6 mm/hr 0.14 in3.6 mm
08:40 AM 71.4°F21.9°C 71.1°F21.7°C 99% 2.5 mph SW4.0 kmh SW 3.9 mph6.3 kmh 29.52 in999.7 mb 0.06 in1.5 mm 0.36 in/hr9.1 mm/hr 0.10 in2.5 mm
08:30 AM 71.4°F21.9°C 71.1°F21.7°C 99% 2.6 mph SE4.2 kmh SE 2.6 mph4.2 kmh 29.50 in999.0 mb 0.04 in1.0 mm 0.24 in/hr6.1 mm/hr 0.04 in1.0 mm
08:20 AM 71.4°F21.9°C 71.1°F21.7°C 99% 2.0 mph ENE3.2 kmh ENE 2.6 mph4.2 kmh 29.52 in999.7 mb 0.01 in0.3 mm 0.06 in/hr1.5 mm/hr 0.01 in0.3 mm
08:10 AM 71.5°F21.9°C 71.2°F21.8°C 99% 1.3 mph SE2.1 kmh SE 2.6 mph4.2 kmh 29.54 in1000.3 mb 0.00 in0.0 mm 0.00 in/hr0.0 mm/hr 0.00 in0.0 mm
08:00 AM 71.5°F21.9°C 71.2°F21.8°C 99% Calm Calm 1.3 mph2.1 kmh 29.54 in1000.3 mb 0.00 in0.0 mm 0.00 in/hr0.0 mm/hr 0.00 in0.0 mm
07:50 AM 71.3°F21.8°C 71.0°F21.7°C 99% 1.1 mph E1.8 kmh E 2.6 mph4.2 kmh 29.55 in1000.7 mb 0.00 in0.0 mm 0.00 in/hr0.0 mm/hr 0.00 in0.0 mm
07:40 AM 71.2°F21.8°C 70.9°F21.6°C 99% 1.5 mph S2.4 kmh S 2.6 mph4.2 kmh 29.55 in1000.7 mb 0.00 in0.0 mm 0.00 in/hr0.0 mm/hr 0.00 in0.0 mm
07:30 AM 70.9°F21.6°C 70.6°F21.4°C 99% 1.2 mph WNW1.9 kmh WNW 2.3 mph3.7 kmh 29.56 in1001.0 mb 0.00 in0.0 mm 0.00 in/hr0.0 mm/hr 0.00 in0.0 mm
07:20 AM 70.9°F21.6°C 70.6°F21.4°C 99% 1.2 mph SE1.9 kmh SE 2.6 mph4.2 kmh 29.56 in1001.0 mb 0.00 in0.0 mm 0.00 in/hr0.0 mm/hr 0.00 in0.0 mm
07:10 AM 70.8°F21.6°C 70.5°F21.4°C 99% 0.6 mph SSW1.0 kmh SSW 5.2 mph8.4 kmh 29.56 in1001.0 mb 0.00 in0.0 mm 0.00 in/hr0.0 mm/hr 0.00 in0.0 mm
07:00 AM 70.7°F21.5°C 70.4°F21.3°C 99% 1.7 mph E2.7 kmh E 5.2 mph8.4 kmh 29.57 in1001.4 mb 0.00 in0.0 mm 0.00 in/hr0.0 mm/hr 0.00 in0.0 mm
06:50 AM 70.6°F21.4°C 70.3°F21.3°C 99% 0.3 mph SSE0.5 kmh SSE -- 29.57 in1001.4 mb 0.00 in0.0 mm 0.00 in/hr0.0 mm/hr 0.00 in0.0 mm
06:40 AM 70.4°F21.3°C 70.1°F21.2°C 99% 1.0 mph NE1.6 kmh NE 2.6 mph4.2 kmh 29.57 in1001.4 mb 0.00 in0.0 mm 0.00 in/hr0.0 mm/hr 0.00 in0.0 mm
06:30 AM 70.4°F21.3°C 70.1°F21.2°C 99% 1.1 mph ESE1.8 kmh ESE 2.6 mph4.2 kmh 29.57 in1001.4 mb 0.00 in0.0 mm 0.00 in/hr0.0 mm/hr 0.00 in0.0 mm
06:20 AM 70.2°F21.2°C 69.9°F21.1°C 99% 1.4 mph S2.3 kmh S 2.6 mph4.2 kmh 29.58 in1001.7 mb 0.00 in0.0 mm 0.00 in/hr0.0 mm/hr 0.00 in0.0 mm
06:10 AM 70.1°F21.2°C 69.8°F21.0°C 99% 0.3 mph W0.5 kmh W 2.6 mph4.2 kmh 29.58 in1001.7 mb 0.00 in0.0 mm 0.00 in/hr0.0 mm/hr 0.00 in0.0 mm
06:00 AM 69.9°F21.1°C 69.6°F20.9°C 99% 1.3 mph SE2.1 kmh SE 2.6 mph4.2 kmh 29.58 in1001.7 mb 0.00 in0.0 mm 0.00 in/hr0.0 mm/hr 0.00 in0.0 mm
05:50 AM 69.8°F21.0°C 69.5°F20.8°C 99% 0.9 mph E1.4 kmh E 2.6 mph4.2 kmh 29.58 in1001.7 mb 0.00 in0.0 mm 0.00 in/hr0.0 mm/hr 0.00 in0.0 mm
05:40 AM 69.7°F20.9°C 69.4°F20.8°C 99% 0.3 mph ESE0.5 kmh ESE 2.6 mph4.2 kmh 29.58 in1001.7 mb 0.00 in0.0 mm 0.00 in/hr0.0 mm/hr 0.00 in0.0 mm
05:30 AM 69.7°F20.9°C 69.4°F20.8°C 99% Calm Calm -- 29.58 in1001.7 mb 0.00 in0.0 mm 0.00 in/hr0.0 mm/hr 0.00 in0.0 mm
05:20 AM 69.8°F21.0°C 69.5°F20.8°C 99% 0.3 mph ENE0.5 kmh ENE 1.3 mph2.1 kmh 29.59 in1002.0 mb 0.00 in0.0 mm 0.00 in/hr0.0 mm/hr 0.00 in0.0 mm
05:10 AM 69.8°F21.0°C 69.5°F20.8°C 99% 0.9 mph ESE1.4 kmh ESE -- 29.60 in1002.4 mb 0.00 in0.0 mm 0.00 in/hr0.0 mm/hr 0.00 in0.0 mm
05:00 AM 69.8°F21.0°C 69.5°F20.8°C 99% 0.3 mph S0.5 kmh S -- 29.60 in1002.4 mb 0.00 in0.0 mm 0.00 in/hr0.0 mm/hr 0.00 in0.0 mm
04:50 AM 69.9°F21.1°C 69.6°F20.9°C 99% 1.5 mph SSW2.4 kmh SSW 2.6 mph4.2 kmh 29.60 in1002.4 mb 0.00 in0.0 mm 0.00 in/hr0.0 mm/hr 0.00 in0.0 mm
04:40 AM 69.7°F20.9°C 69.4°F20.8°C 99% 0.3 mph ESE0.5 kmh ESE -- 29.60 in1002.4 mb 0.00 in0.0 mm 0.00 in/hr0.0 mm/hr 0.00 in0.0 mm
04:30 AM 69.6°F20.9°C 69.3°F20.7°C 99% 0.1 mph SE0.2 kmh SE 1.3 mph2.1 kmh 29.60 in1002.4 mb 0.00 in0.0 mm 0.00 in/hr0.0 mm/hr 0.00 in0.0 mm
04:20 AM 69.5°F20.8°C 69.2°F20.7°C 99% Calm Calm -- 29.59 in1002.0 mb 0.00 in0.0 mm 0.00 in/hr0.0 mm/hr 0.00 in0.0 mm
04:10 AM 69.5°F20.8°C 69.2°F20.7°C 99% Calm Calm -- 29.60 in1002.4 mb 0.00 in0.0 mm 0.00 in/hr0.0 mm/hr 0.00 in0.0 mm
04:00 AM 69.5°F20.8°C 69.2°F20.7°C 99% Calm Calm -- 29.60 in1002.4 mb 0.00 in0.0 mm 0.00 in/hr0.0 mm/hr 0.00 in0.0 mm
03:50 AM 69.5°F20.8°C 69.2°F20.7°C 99% 0.2 mph S0.3 kmh S 2.6 mph4.2 kmh 29.60 in1002.4 mb 0.00 in0.0 mm 0.00 in/hr0.0 mm/hr 0.00 in0.0 mm
03:40 AM 69.5°F20.8°C 69.2°F20.7°C 99% 0.7 mph N1.1 kmh N 2.6 mph4.2 kmh 29.60 in1002.4 mb 0.00 in0.0 mm 0.00 in/hr0.0 mm/hr 0.00 in0.0 mm
03:30 AM 69.5°F20.8°C 69.2°F20.7°C 99% 1.3 mph SW2.1 kmh SW 2.6 mph4.2 kmh 29.60 in1002.4 mb 0.00 in0.0 mm 0.00 in/hr0.0 mm/hr 0.00 in0.0 mm
03:20 AM 69.5°F20.8°C 69.2°F20.7°C 99% 0.2 mph WSW0.3 kmh WSW -- 29.61 in1002.7 mb 0.00 in0.0 mm 0.00 in/hr0.0 mm/hr 0.00 in0.0 mm
03:10 AM 69.5°F20.8°C 69.2°F20.7°C 99% 1.4 mph SSW2.3 kmh SSW 2.6 mph4.2 kmh 29.61 in1002.7 mb 0.00 in0.0 mm 0.00 in/hr0.0 mm/hr 0.00 in0.0 mm
03:00 AM 69.5°F20.8°C 69.2°F20.7°C 99% Calm Calm -- 29.61 in1002.7 mb 0.00 in0.0 mm 0.00 in/hr0.0 mm/hr 0.00 in0.0 mm
02:50 AM 69.5°F20.8°C 69.2°F20.7°C 99% Calm Calm 2.6 mph4.2 kmh 29.61 in1002.7 mb 0.00 in0.0 mm 0.00 in/hr0.0 mm/hr 0.00 in0.0 mm
02:40 AM 69.4°F20.8°C 69.1°F20.6°C 99% 0.9 mph SE1.4 kmh SE 2.6 mph4.2 kmh 29.61 in1002.7 mb 0.00 in0.0 mm 0.00 in/hr0.0 mm/hr 0.00 in0.0 mm
02:30 AM 69.3°F20.7°C 69.0°F20.6°C 99% 1.1 mph SW1.8 kmh SW 2.6 mph4.2 kmh 29.62 in1003.0 mb 0.00 in0.0 mm 0.00 in/hr0.0 mm/hr 0.00 in0.0 mm
02:20 AM 69.1°F20.6°C 68.8°F20.4°C 99% 1.0 mph WSW1.6 kmh WSW 2.6 mph4.2 kmh 29.62 in1003.0 mb 0.00 in0.0 mm 0.00 in/hr0.0 mm/hr 0.00 in0.0 mm
02:10 AM 68.9°F20.5°C 68.6°F20.3°C 99% 1.5 mph SSW2.4 kmh SSW 2.6 mph4.2 kmh 29.62 in1003.0 mb 0.00 in0.0 mm 0.00 in/hr0.0 mm/hr 0.00 in0.0 mm
02:00 AM 68.6°F20.3°C 68.3°F20.2°C 99% 0.8 mph SW1.3 kmh SW 2.6 mph4.2 kmh 29.62 in1003.0 mb 0.00 in0.0 mm 0.00 in/hr0.0 mm/hr 0.00 in0.0 mm
01:50 AM 68.2°F20.1°C 67.9°F19.9°C 99% 1.3 mph SE2.1 kmh SE 2.6 mph4.2 kmh 29.62 in1003.0 mb 0.00 in0.0 mm 0.00 in/hr0.0 mm/hr 0.00 in0.0 mm
01:40 AM 67.6°F19.8°C 67.3°F19.6°C 99% 0.4 mph SE0.6 kmh SE 1.3 mph2.1 kmh 29.63 in1003.4 mb 0.00 in0.0 mm 0.00 in/hr0.0 mm/hr 0.00 in0.0 mm
01:30 AM 67.3°F19.6°C 67.0°F19.4°C 99% Calm Calm -- 29.64 in1003.7 mb 0.00 in0.0 mm 0.00 in/hr0.0 mm/hr 0.00 in0.0 mm
01:20 AM 66.9°F19.4°C 66.6°F19.2°C 99% Calm Calm -- 29.64 in1003.7 mb 0.00 in0.0 mm 0.00 in/hr0.0 mm/hr 0.00 in0.0 mm
01:10 AM 67.1°F19.5°C 66.8°F19.3°C 99% Calm Calm -- 29.64 in1003.7 mb 0.00 in0.0 mm 0.00 in/hr0.0 mm/hr 0.00 in0.0 mm
01:00 AM 67.4°F19.7°C 67.1°F19.5°C 99% Calm Calm -- 29.64 in1003.7 mb 0.00 in0.0 mm 0.00 in/hr0.0 mm/hr 0.00 in0.0 mm
12:50 AM 67.4°F19.7°C 67.1°F19.5°C 99% Calm Calm -- 29.64 in1003.7 mb 0.00 in0.0 mm 0.00 in/hr0.0 mm/hr 0.00 in0.0 mm
12:40 AM 67.6°F19.8°C 67.3°F19.6°C 99% Calm Calm -- 29.65 in1004.1 mb 0.00 in0.0 mm 0.00 in/hr0.0 mm/hr 0.00 in0.0 mm
12:30 AM 67.6°F19.8°C 67.3°F19.6°C 99% Calm Calm -- 29.64 in1003.7 mb 0.00 in0.0 mm 0.00 in/hr0.0 mm/hr 0.00 in0.0 mm
12:20 AM 67.4°F19.7°C 67.1°F19.5°C 99% Calm Calm -- 29.65 in1004.1 mb 0.00 in0.0 mm 0.00 in/hr0.0 mm/hr 0.00 in0.0 mm
12:00 AM 67.9°F19.9°C 67.6°F19.8°C 99% Calm Calm -- 29.65 in1004.1 mb 0.00 in0.0 mm 0.00 in/hr0.0 mm/hr 0.00 in0.0 mm